Time;durP1;ratioP1;P1;durP2;ratioP2;P2;SDS_P1;SDS_P2;PMS_P1;PMS_P2;Temp;Humidity;BMP_temperature;BMP_pressure;BME280_temperature;BME280_humidity;BME280_pressure;Samples;Min_cycle;Max_cycle;Signal;HPM_P1;HPM_P2
2022/03/13 00:00:38;;;;;;;10.38;4.30;;;;;;;-1.87;70.27;147209.53;1769567;79;21582;-58
2022/03/13 00:03:13;;;;;;;12.63;4.62;;;;;;;-1.83;70.24;147218.48;1791713;79;21453;-58
2022/03/13 00:05:40;;;;;;;8.55;3.87;;;;;;;-1.82;70.29;147221.05;1809633;78;21044;-57
2022/03/13 00:08:27;;;;;;;16.57;4.60;;;;;;;-1.82;70.41;147221.05;1810885;79;21082;-57
2022/03/13 00:11:01;;;;;;;12.35;4.55;;;;;;;-1.82;70.56;147221.05;1811279;79;21591;-57
2022/03/13 00:13:32;;;;;;;13.00;4.63;;;;;;;-1.80;70.65;147227.50;1810348;78;20996;-59
2022/03/13 00:16:08;;;;;;;13.50;5.30;;;;;;;-1.77;70.65;147235.20;1809773;79;21450;-57
2022/03/13 00:18:34;;;;;;;16.95;5.60;;;;;;;-1.74;70.55;147242.91;1810001;79;21024;-62
2022/03/13 00:21:04;;;;;;;12.33;5.60;;;;;;;-1.70;70.28;147250.61;1811381;79;21062;-63
2022/03/13 00:23:34;;;;;;;15.38;5.40;;;;;;;-1.66;70.04;147260.87;1811751;78;21239;-63
2022/03/13 00:26:04;;;;;;;13.75;5.00;;;;;;;-1.64;69.76;147267.33;1811892;79;20980;-62
2022/03/13 00:28:31;;;;;;;11.28;5.37;;;;;;;-1.62;68.66;147271.20;1811944;78;21031;-62
2022/03/13 00:31:01;;;;;;;12.68;5.03;;;;;;;-1.64;67.92;147266.06;1811751;78;21460;-64
2022/03/13 00:33:28;;;;;;;12.73;5.22;;;;;;;-1.68;67.48;147255.75;1812377;79;20905;-63
2022/03/13 00:35:55;;;;;;;14.47;5.30;;;;;;;-1.73;67.01;147245.47;1811752;78;21843;-64
2022/03/13 00:38:25;;;;;;;14.90;5.28;;;;;;;-1.78;66.81;147232.62;1811743;79;21123;-63
2022/03/13 00:40:55;;;;;;;12.98;5.42;;;;;;;-1.83;66.73;147219.80;1811633;79;21050;-63
2022/03/13 00:43:23;;;;;;;11.12;4.65;;;;;;;-1.87;66.69;147209.53;1811965;79;20985;-63
2022/03/13 00:45:51;;;;;;;15.63;5.17;;;;;;;-1.88;66.35;147208.22;1812287;78;21082;-63
2022/03/13 00:48:17;;;;;;;12.78;4.83;;;;;;;-1.85;66.18;147213.34;1812426;79;21270;-62
2022/03/13 00:50:45;;;;;;;17.15;5.92;;;;;;;-1.82;66.05;147222.36;1811922;78;20996;-63
2022/03/13 00:53:13;;;;;;;10.35;5.00;;;;;;;-1.77;65.83;147235.20;1812351;78;20960;-62
2022/03/13 00:55:40;;;;;;;14.73;5.10;;;;;;;-1.71;65.60;147248.03;1811872;78;21541;-58
2022/03/13 00:58:09;;;;;;;12.45;5.35;;;;;;;-1.68;65.15;147255.75;1811727;78;20991;-58
2022/03/13 01:00:37;;;;;;;12.98;4.97;;;;;;;-1.65;65.05;147263.50;1812310;78;21230;-63
2022/03/13 01:03:04;;;;;;;12.53;5.08;;;;;;;-1.64;64.79;147267.33;1811312;79;21068;-62
2022/03/13 01:05:31;;;;;;;10.90;4.72;;;;;;;-1.63;64.76;147269.89;1811700;78;21374;-58
2022/03/13 01:08:00;;;;;;;12.18;5.22;;;;;;;-1.63;64.62;147268.64;1811580;79;20964;-62
2022/03/13 01:10:28;;;;;;;9.90;5.08;;;;;;;-1.63;64.67;147268.64;1812540;78;20857;-58
2022/03/13 01:12:56;;;;;;;10.63;4.42;;;;;;;-1.63;64.68;147269.89;1811526;78;21215;-58
2022/03/13 01:15:23;;;;;;;14.03;5.35;;;;;;;-1.62;64.67;147271.20;1811841;79;20965;-58
2022/03/13 01:17:52;;;;;;;19.10;5.75;;;;;;;-1.64;64.70;147266.06;1811243;79;20975;-58
2022/03/13 01:20:21;;;;;;;11.97;5.85;;;;;;;-1.68;64.67;147255.75;1811653;78;21048;-58
2022/03/13 01:22:48;;;;;;;12.03;5.35;;;;;;;-1.71;64.70;147248.03;1811686;79;21706;-62
2022/03/13 01:25:16;;;;;;;11.08;5.40;;;;;;;-1.76;64.81;147237.77;1812151;79;21270;-62
2022/03/13 01:27:47;;;;;;;13.40;6.42;;;;;;;-1.81;64.99;147224.94;1811179;78;21079;-57
2022/03/13 01:30:14;;;;;;;16.97;5.87;;;;;;;-1.87;65.18;147209.53;1811422;79;21012;-58
2022/03/13 01:32:48;;;;;;;15.23;5.67;;;;;;;-1.91;65.25;147199.20;1811293;79;20905;-58
2022/03/13 01:35:19;;;;;;;13.90;5.47;;;;;;;-1.95;65.48;147188.94;1811553;79;21521;-62
2022/03/13 01:37:47;;;;;;;16.50;5.70;;;;;;;-1.98;65.80;147181.23;1811812;79;21223;-63
2022/03/13 01:40:21;;;;;;;14.53;5.75;;;;;;;-2.00;66.00;147176.09;1812197;78;21576;-64
2022/03/13 01:42:48;;;;;;;11.78;5.35;;;;;;;-2.05;66.23;147165.83;1812140;78;21345;-59
2022/03/13 01:45:19;;;;;;;14.35;4.65;;;;;;;-2.10;66.68;147152.98;1812192;79;20985;-57
2022/03/13 01:47:46;;;;;;;12.07;5.20;;;;;;;-2.14;66.99;147142.67;1812452;79;20956;-59
2022/03/13 01:50:14;;;;;;;13.85;4.67;;;;;;;-2.18;67.40;147133.72;1812205;79;21431;-62
2022/03/13 01:52:46;;;;;;;13.60;5.55;;;;;;;-2.19;67.81;147129.84;1811728;79;20977;-57
2022/03/13 01:55:13;;;;;;;13.22;5.42;;;;;;;-2.23;67.99;147119.56;1811459;77;20936;-59
2022/03/13 01:57:42;;;;;;;14.43;5.53;;;;;;;-2.26;68.02;147111.87;1811897;79;21015;-57
2022/03/13 02:00:11;;;;;;;13.68;5.70;;;;;;;-2.29;68.05;147104.17;1811564;78;21079;-57
2022/03/13 02:02:47;;;;;;;13.55;5.67;;;;;;;-2.35;68.05;147091.28;1811437;79;21135;-59
2022/03/13 02:05:34;;;;;;;9.13;5.10;;;;;;;-2.38;68.21;147083.59;1811890;78;22184;-59
2022/03/13 02:08:20;;;;;;;14.05;5.78;;;;;;;-2.43;68.51;147070.75;1811663;78;20909;-58
2022/03/13 02:10:49;;;;;;;14.78;7.25;;;;;;;-2.48;68.71;147057.94;1811528;79;21599;-57
2022/03/13 02:13:23;;;;;;;15.78;6.78;;;;;;;-2.53;69.23;147045.09;1812305;77;20984;-63
2022/03/13 02:15:51;;;;;;;17.00;6.72;;;;;;;-2.59;69.65;147032.22;1811430;77;21214;-63
2022/03/13 02:18:18;;;;;;;14.98;7.15;;;;;;;-2.62;69.83;147024.52;1811849;79;21015;-62
2022/03/13 02:20:47;;;;;;;20.92;8.53;;;;;;;-2.65;69.96;147016.81;1811224;79;21517;-63
2022/03/13 02:23:26;;;;;;;17.80;8.45;;;;;;;-2.66;70.24;147014.25;1811324;79;21524;-62
2022/03/13 02:26:01;;;;;;;23.18;8.68;;;;;;;-2.68;70.84;147009.12;1811491;79;21019;-63
2022/03/13 02:28:35;;;;;;;17.92;7.62;;;;;;;-2.69;71.13;147005.25;1812032;78;21219;-62
2022/03/13 02:31:05;;;;;;;16.95;7.53;;;;;;;-2.70;71.30;147003.98;1811572;79;21404;-57
2022/03/13 02:33:32;;;;;;;13.32;6.33;;;;;;;-2.70;71.55;147003.98;1811119;78;21008;-58
2022/03/13 02:36:02;;;;;;;15.30;7.80;;;;;;;-2.70;71.92;147003.98;1811422;79;21039;-59
2022/03/13 02:38:33;;;;;;;18.98;6.95;;;;;;;-2.68;72.10;147007.81;1811743;78;21016;-58
2022/03/13 02:40:59;;;;;;;10.28;5.85;;;;;;;-2.68;72.41;147007.81;1811281;79;21911;-57
2022/03/13 02:43:28;;;;;;;18.67;6.10;;;;;;;-2.70;72.69;147002.69;1811305;79;20925;-57
2022/03/13 02:45:55;;;;;;;12.58;5.90;;;;;;;-2.71;73.01;147001.42;1810877;79;21071;-57
2022/03/13 02:48:22;;;;;;;13.53;5.85;;;;;;;-2.71;73.70;147001.42;1752705;79;20940;-58
2022/03/13 02:50:49;;;;;;;14.13;6.15;;;;;;;-2.70;74.06;147003.98;1811338;79;20955;-57
2022/03/13 02:53:17;;;;;;;13.32;6.00;;;;;;;-2.70;74.27;147003.98;1810960;79;21517;-57
2022/03/13 02:55:45;;;;;;;12.95;6.03;;;;;;;-2.70;74.58;147003.98;1811667;79;21043;-56
2022/03/13 02:58:13;;;;;;;12.75;6.20;;;;;;;-2.69;74.79;147006.56;1811580;79;21084;-57
2022/03/13 03:00:49;;;;;;;15.65;5.67;;;;;;;-2.70;74.97;147003.98;1815798;77;20984;-58
2022/03/13 03:03:18;;;;;;;13.40;6.25;;;;;;;-2.70;75.80;147003.98;1821204;78;21015;-58
2022/03/13 03:05:47;;;;;;;12.50;5.65;;;;;;;-2.69;75.78;147006.56;1821230;78;21453;-57
2022/03/13 03:08:16;;;;;;;11.40;5.58;;;;;;;-2.66;76.34;147014.25;1820973;78;21006;-58
2022/03/13 03:10:44;;;;;;;12.35;5.50;;;;;;;-2.65;76.25;147016.81;1820899;78;21561;-59
2022/03/13 03:13:12;;;;;;;16.42;6.20;;;;;;;-2.63;76.46;147021.95;1790734;78;21525;-58
2022/03/13 03:15:39;;;;;;;14.95;6.67;;;;;;;-2.64;76.52;147018.13;1820176;78;21044;-58
2022/03/13 03:18:10;;;;;;;13.95;6.42;;;;;;;-2.63;76.52;147021.95;1820482;77;21274;-58
2022/03/13 03:20:39;;;;;;;17.77;6.28;;;;;;;-2.64;76.90;147019.38;1820257;78;21040;-58
2022/03/13 03:23:05;;;;;;;14.65;6.40;;;;;;;-2.66;76.97;147014.25;1820469;78;20999;-57
2022/03/13 03:25:32;;;;;;;10.93;5.65;;;;;;;-2.66;77.33;147014.25;1820527;78;20987;-57
2022/03/13 03:27:59;;;;;;;16.23;6.90;;;;;;;-2.66;77.35;147012.95;1820183;78;21651;-57
2022/03/13 03:30:30;;;;;;;12.65;6.03;;;;;;;-2.68;77.31;147009.12;1820769;78;20921;-58
2022/03/13 03:33:04;;;;;;;11.60;5.58;;;;;;;-2.70;77.66;147002.69;1820596;78;21047;-58
2022/03/13 03:35:32;;;;;;;15.75;6.40;;;;;;;-2.71;77.89;147001.42;1820781;78;20937;-58
2022/03/13 03:37:59;;;;;;;14.60;5.80;;;;;;;-2.72;77.94;146998.86;1820120;78;21090;-58
2022/03/13 03:40:32;;;;;;;16.57;5.70;;;;;;;-2.71;78.33;147000.13;1820617;78;20980;-58
2022/03/13 03:43:01;;;;;;;17.48;6.08;;;;;;;-2.72;78.35;146998.86;1820436;78;21160;-56
2022/03/13 03:45:30;;;;;;;14.40;6.05;;;;;;;-2.72;78.43;146997.55;1820485;78;21044;-58
2022/03/13 03:47:58;;;;;;;13.43;6.22;;;;;;;-2.74;78.56;146994.98;1820285;78;21008;-58
2022/03/13 03:50:26;;;;;;;12.80;5.72;;;;;;;-2.75;78.75;146991.16;1820399;78;20928;-58
2022/03/13 03:52:58;;;;;;;13.22;5.60;;;;;;;-2.78;79.02;146983.41;1778259;78;21107;-58
2022/03/13 03:55:25;;;;;;;12.13;5.53;;;;;;;-2.80;79.24;146978.28;1753560;80;21228;-58
2022/03/13 03:57:53;;;;;;;12.65;5.25;;;;;;;-2.83;79.63;146970.59;1753959;80;21454;-58
2022/03/13 04:00:24;;;;;;;13.20;6.22;;;;;;;-2.84;79.70;146968.02;1754893;80;21075;-61
2022/03/13 04:02:52;;;;;;;12.78;5.37;;;;;;;-2.83;79.88;146971.91;1773298;78;21047;-58
2022/03/13 04:05:19;;;;;;;14.70;5.55;;;;;;;-2.82;80.27;146973.16;1823198;78;21051;-63
2022/03/13 04:07:46;;;;;;;11.00;5.27;;;;;;;-2.82;80.20;146973.16;1822937;78;22130;-63
2022/03/13 04:10:13;;;;;;;12.43;5.45;;;;;;;-2.83;80.42;146971.91;1823116;78;21035;-62
2022/03/13 04:12:41;;;;;;;12.27;4.90;;;;;;;-2.84;80.49;146968.02;1822886;78;21429;-62
2022/03/13 04:15:09;;;;;;;15.50;6.20;;;;;;;-2.85;80.78;146966.77;1822991;77;21637;-62
2022/03/13 04:17:37;;;;;;;12.88;5.62;;;;;;;-2.84;80.87;146968.02;1823263;78;20964;-62
2022/03/13 04:20:06;;;;;;;10.65;4.72;;;;;;;-2.81;81.14;146975.72;1823009;77;21209;-62
2022/03/13 04:22:34;;;;;;;12.53;5.20;;;;;;;-2.78;81.22;146983.41;1823666;78;21398;-62
2022/03/13 04:25:01;;;;;;;12.40;5.53;;;;;;;-2.77;81.10;146985.98;1822500;78;21573;-63
2022/03/13 04:27:30;;;;;;;11.57;5.42;;;;;;;-2.75;81.15;146992.42;1823189;77;21433;-62
2022/03/13 04:29:58;;;;;;;12.73;5.40;;;;;;;-2.73;81.14;146996.30;1822740;78;21066;-63
2022/03/13 04:32:25;;;;;;;12.40;5.25;;;;;;;-2.71;81.11;147000.13;1822874;78;21454;-62
2022/03/13 04:34:52;;;;;;;14.33;5.80;;;;;;;-2.70;81.09;147003.98;1821953;78;21062;-62
2022/03/13 04:37:20;;;;;;;11.57;5.65;;;;;;;-2.69;81.15;147006.56;1822776;78;21023;-62
2022/03/13 04:39:50;;;;;;;14.55;5.78;;;;;;;-2.67;81.41;147011.69;1822573;77;21193;-62
2022/03/13 04:42:19;;;;;;;14.45;5.95;;;;;;;-2.66;81.68;147014.25;1823425;78;21011;-62
2022/03/13 04:44:46;;;;;;;12.47;5.42;;;;;;;-2.64;82.17;147019.38;1822975;78;21480;-63
2022/03/13 04:47:15;;;;;;;13.95;6.05;;;;;;;-2.59;82.51;147032.22;1823832;78;20995;-63
2022/03/13 04:49:44;;;;;;;12.43;5.78;;;;;;;-2.52;82.66;147047.66;1823434;78;21035;-62
2022/03/13 04:52:12;;;;;;;13.00;5.97;;;;;;;-2.41;82.90;147074.63;1823010;78;21531;-63
2022/03/13 04:54:40;;;;;;;10.25;5.10;;;;;;;-2.29;82.80;147105.44;1822862;78;20976;-63
2022/03/13 04:57:07;;;;;;;12.07;5.85;;;;;;;-2.16;83.30;147137.53;1823333;78;21226;-63
2022/03/13 04:59:35;;;;;;;14.83;7.08;;;;;;;-2.03;83.20;147169.66;1823362;78;21008;-62
2022/03/13 05:02:03;;;;;;;11.40;6.12;;;;;;;-1.91;83.24;147199.20;1821048;78;21004;-62
2022/03/13 05:04:31;;;;;;;13.43;6.60;;;;;;;-1.77;83.34;147233.89;1820759;78;21024;-58
2022/03/13 05:06:59;;;;;;;8.85;5.00;;;;;;;-1.64;83.33;147266.06;1820807;78;21046;-58
2022/03/13 05:09:26;;;;;;;13.72;6.30;;;;;;;-1.48;83.44;147307.16;1820693;78;20959;-58
2022/03/13 05:11:53;;;;;;;13.62;6.05;;;;;;;-1.35;83.15;147338.03;1820346;78;20951;-58
2022/03/13 05:14:21;;;;;;;15.03;6.83;;;;;;;-1.24;82.94;147365.03;1820584;78;21051;-59
2022/03/13 05:16:48;;;;;;;11.65;6.08;;;;;;;-1.16;82.81;147386.89;1820587;78;21010;-63
2022/03/13 05:19:16;;;;;;;12.05;6.95;;;;;;;-1.07;82.96;147408.75;1820681;78;22091;-63
2022/03/13 05:21:44;;;;;;;14.10;6.55;;;;;;;-0.97;82.98;147433.19;1820367;78;22172;-63
2022/03/13 05:24:12;;;;;;;14.07;6.65;;;;;;;-0.88;82.94;147456.31;1820739;78;20994;-63
2022/03/13 05:26:39;;;;;;;13.70;6.45;;;;;;;-0.76;82.96;147485.89;1821311;78;20924;-63
2022/03/13 05:29:07;;;;;;;18.73;6.22;;;;;;;-0.64;82.95;147514.22;1820555;78;21038;-58
2022/03/13 05:31:34;;;;;;;15.48;7.30;;;;;;;-0.51;82.85;147547.62;1820962;77;21047;-59
2022/03/13 05:34:02;;;;;;;14.10;6.50;;;;;;;-0.35;82.72;147587.50;1820415;78;21236;-62
2022/03/13 05:36:29;;;;;;;14.07;7.20;;;;;;;-0.17;82.60;147631.25;1821137;78;20872;-62
2022/03/13 05:38:56;;;;;;;11.60;6.17;;;;;;;0.01;82.35;147675.02;1820432;78;21468;-62
2022/03/13 05:41:24;;;;;;;18.30;6.97;;;;;;;0.33;82.35;147754.81;1820914;78;20951;-63
2022/03/13 05:43:54;;;;;;;12.85;6.55;;;;;;;0.76;81.62;147861.70;1820047;78;21058;-63
2022/03/13 05:46:21;;;;;;;12.05;6.58;;;;;;;1.14;80.06;147958.28;1820655;78;21128;-63
2022/03/13 05:48:49;;;;;;;15.63;7.08;;;;;;;1.60;79.26;148071.66;1819856;78;21376;-62
2022/03/13 05:51:16;;;;;;;12.88;6.95;;;;;;;2.01;77.89;148173.53;1820232;78;21560;-62
2022/03/13 05:53:44;;;;;;;13.45;7.08;;;;;;;2.45;75.79;148283.09;1820005;78;21020;-63
2022/03/13 05:56:11;;;;;;;13.13;7.40;;;;;;;2.81;74.32;148373.41;1820224;78;21036;-62
2022/03/13 05:58:38;;;;;;;12.50;7.55;;;;;;;3.15;72.93;148458.52;1820152;78;21223;-57
2022/03/13 06:01:05;;;;;;;13.68;7.62;;;;;;;3.24;71.01;148479.19;1817773;78;21047;-57
2022/03/13 06:03:32;;;;;;;12.25;6.65;;;;;;;2.67;71.83;148337.27;1812024;79;20874;-63
2022/03/13 06:06:02;;;;;;;16.32;7.47;;;;;;;2.67;71.83;148337.27;1811335;79;21119;-63
2022/03/13 06:08:31;;;;;;;12.58;6.75;;;;;;;2.44;72.40;148280.52;1811907;79;21277;-64
2022/03/13 06:10:59;;;;;;;16.10;7.90;;;;;;;2.21;73.50;148223.78;1811529;79;21195;-63
2022/03/13 06:13:26;;;;;;;16.20;7.10;;;;;;;2.04;74.12;148179.94;1811765;79;20996;-57
2022/03/13 06:15:53;;;;;;;19.32;8.25;;;;;;;1.94;74.98;148156.75;1811351;79;21055;-59
2022/03/13 06:18:21;;;;;;;13.32;7.20;;;;;;;1.84;75.51;148132.27;1811855;78;21640;-63
2022/03/13 06:20:48;;;;;;;13.20;7.78;;;;;;;1.78;76.44;148115.50;1811656;78;20991;-63
2022/03/13 06:23:16;;;;;;;23.00;8.68;;;;;;;1.71;76.78;148098.73;1811431;79;21930;-63
2022/03/13 06:25:45;;;;;;;15.00;7.55;;;;;;;1.74;77.65;148105.19;1811107;78;21028;-64
2022/03/13 06:28:12;;;;;;;15.53;7.03;;;;;;;1.70;78.04;148097.47;1811485;79;21047;-58
2022/03/13 06:30:39;;;;;;;16.70;8.15;;;;;;;1.70;78.55;148097.47;1811784;78;20968;-58
2022/03/13 06:33:07;;;;;;;11.53;7.08;;;;;;;1.75;78.81;148107.77;1811209;78;20940;-58
2022/03/13 06:35:34;;;;;;;12.25;6.80;;;;;;;1.75;79.31;148107.77;1811492;78;20977;-58
2022/03/13 06:38:01;;;;;;;11.45;6.87;;;;;;;1.77;79.83;148112.92;1811120;78;21008;-58
2022/03/13 06:40:28;;;;;;;13.18;6.80;;;;;;;1.69;80.43;148093.58;1811868;79;20996;-59
2022/03/13 06:42:58;;;;;;;10.55;6.60;;;;;;;1.67;81.11;148089.75;1810881;79;20960;-58
2022/03/13 06:45:25;;;;;;;11.38;6.15;;;;;;;1.71;81.35;148100.05;1811805;78;21084;-58
2022/03/13 06:47:52;;;;;;;14.25;6.80;;;;;;;1.79;81.22;148118.06;1811912;79;21275;-58
2022/03/13 06:50:23;;;;;;;13.72;6.75;;;;;;;1.89;81.15;148143.88;1811783;79;21063;-58
2022/03/13 06:52:52;;;;;;;10.72;6.10;;;;;;;1.89;81.14;148143.88;1812239;78;20956;-58
2022/03/13 06:55:21;;;;;;;11.78;6.03;;;;;;;1.97;81.22;148164.48;1811732;79;21040;-57
2022/03/13 06:57:50;;;;;;;11.25;6.17;;;;;;;2.04;80.96;148179.94;1811631;79;21023;-58
2022/03/13 07:00:19;;;;;;;11.95;7.03;;;;;;;2.06;80.82;148185.09;1811575;79;21826;-59
2022/03/13 07:02:46;;;;;;;11.93;7.00;;;;;;;2.15;81.01;148208.33;1818291;78;21015;-57
2022/03/13 07:05:15;;;;;;;9.63;5.67;;;;;;;2.27;80.76;148239.25;1820606;78;21011;-58
2022/03/13 07:07:42;;;;;;;11.33;6.45;;;;;;;2.34;80.12;148256.02;1820869;78;21043;-58
2022/03/13 07:10:11;;;;;;;11.65;6.17;;;;;;;2.38;79.92;148265.06;1820832;78;21035;-59
2022/03/13 07:12:41;;;;;;;11.73;6.12;;;;;;;2.40;79.47;148270.20;1820916;78;21228;-57
2022/03/13 07:15:13;;;;;;;10.60;5.87;;;;;;;2.47;79.51;148288.25;1820911;78;21018;-57
2022/03/13 07:17:39;;;;;;;10.78;5.87;;;;;;;2.54;78.87;148306.34;1820572;78;21284;-57
2022/03/13 07:20:08;;;;;;;11.63;6.05;;;;;;;2.56;79.03;148311.48;1820107;78;21031;-57
2022/03/13 07:22:36;;;;;;;9.85;6.25;;;;;;;2.65;78.88;148332.11;1821070;78;20941;-59
2022/03/13 07:25:03;;;;;;;11.97;6.25;;;;;;;2.74;78.86;148354.03;1820639;77;21528;-58
2022/03/13 07:27:31;;;;;;;11.35;6.37;;;;;;;2.98;78.36;148414.64;1821091;78;20853;-58
2022/03/13 07:30:00;;;;;;;10.82;5.90;;;;;;;3.36;77.73;148510.14;1820884;78;32581;-58
2022/03/13 07:32:27;;;;;;;12.47;5.22;;;;;;;4.15;74.09;148706.38;1820652;78;21054;-59
2022/03/13 07:34:53;;;;;;;10.85;5.65;;;;;;;4.15;74.09;148706.38;1820255;78;21078;-58
2022/03/13 07:37:21;;;;;;;13.28;6.65;;;;;;;4.06;71.55;148683.11;1820570;78;21318;-58
2022/03/13 07:39:47;;;;;;;10.88;6.40;;;;;;;3.87;72.17;148636.67;1820311;78;21222;-59
2022/03/13 07:42:19;;;;;;;9.88;5.65;;;;;;;3.87;72.96;148636.67;1820338;78;21437;-58
2022/03/13 07:44:46;;;;;;;11.63;6.58;;;;;;;3.94;72.51;148654.73;1820321;78;20988;-58
2022/03/13 07:47:14;;;;;;;10.85;6.25;;;;;;;3.93;71.98;148652.16;1820386;78;21031;-57
2022/03/13 07:49:41;;;;;;;11.85;6.65;;;;;;;3.93;71.52;148652.16;1820414;78;21231;-57
2022/03/13 07:52:08;;;;;;;14.43;6.60;;;;;;;3.95;71.85;148657.31;1820272;78;20988;-58
2022/03/13 07:54:36;;;;;;;9.38;5.70;;;;;;;4.09;71.79;148692.16;1820706;78;20988;-57
2022/03/13 07:57:04;;;;;;;13.13;6.67;;;;;;;4.20;70.67;148719.28;1820254;78;21008;-57
2022/03/13 07:59:30;;;;;;;14.03;5.75;;;;;;;4.17;69.53;148711.53;1817214;77;20932;-57
2022/03/13 08:02:00;;;;;;;10.70;5.97;;;;;;;4.03;68.99;148675.37;1780614;79;21218;-57
2022/03/13 08:04:27;;;;;;;13.13;5.75;;;;;;;3.81;69.26;148621.14;1771111;81;21562;-57
2022/03/13 08:06:56;;;;;;;8.73;5.05;;;;;;;3.58;69.65;148564.34;1771007;79;21653;-59
2022/03/13 08:09:23;;;;;;;9.10;5.40;;;;;;;3.42;70.17;148525.61;1772840;79;21190;-57
2022/03/13 08:11:52;;;;;;;10.80;5.42;;;;;;;3.39;70.31;148517.88;1810832;79;21067;-57
2022/03/13 08:14:19;;;;;;;8.78;5.25;;;;;;;3.49;69.95;148541.12;1812570;78;21802;-57
2022/03/13 08:16:47;;;;;;;8.00;5.28;;;;;;;3.59;69.62;148566.92;1813470;78;22165;-57
2022/03/13 08:19:14;;;;;;;11.90;5.95;;;;;;;3.69;68.98;148592.77;1816219;78;21398;-57
2022/03/13 08:21:41;;;;;;;9.95;5.50;;;;;;;3.81;68.44;148621.14;1816489;78;21505;-57
2022/03/13 08:24:08;;;;;;;10.65;5.47;;;;;;;3.96;68.16;148659.89;1816593;78;21071;-57
2022/03/13 08:26:40;;;;;;;10.95;5.45;;;;;;;4.16;67.97;148708.97;1817108;78;21466;-57
2022/03/13 08:29:06;;;;;;;12.82;6.45;;;;;;;4.36;67.77;148759.31;1815997;78;21118;-57
2022/03/13 08:31:34;;;;;;;10.10;6.10;;;;;;;4.52;66.90;148799.34;1816906;78;21474;-58
2022/03/13 08:34:08;;;;;;;11.57;5.95;;;;;;;4.66;66.64;148832.94;1817081;78;21032;-58
2022/03/13 08:36:31;;;;;;;12.25;5.62;;;;;;;4.68;65.54;148839.42;1815927;78;21392;-57
2022/03/13 08:38:58;;;;;;;9.95;5.75;;;;;;;4.57;64.46;148812.28;1816576;78;21899;-59
2022/03/13 08:41:25;;;;;;;12.75;6.35;;;;;;;4.36;64.67;148758.05;1816600;78;21020;-59
2022/03/13 08:43:53;;;;;;;9.70;5.42;;;;;;;4.24;65.41;148728.34;1816684;78;21027;-58
2022/03/13 08:46:19;;;;;;;12.43;6.22;;;;;;;4.19;65.58;148716.70;1816980;78;21059;-59
2022/03/13 08:48:47;;;;;;;10.30;6.05;;;;;;;4.10;65.90;148693.48;1816718;78;21016;-58
2022/03/13 08:51:15;;;;;;;10.43;6.28;;;;;;;4.05;66.18;148680.53;1816661;78;21233;-59
2022/03/13 08:53:44;;;;;;;9.55;5.60;;;;;;;4.03;66.45;148676.69;1816594;78;20925;-59
2022/03/13 08:56:13;;;;;;;12.75;5.67;;;;;;;4.11;66.35;148696.06;1816592;78;20992;-59
2022/03/13 08:58:43;;;;;;;11.50;6.28;;;;;;;4.18;65.60;148712.81;1816861;78;20981;-59
2022/03/13 09:01:11;;;;;;;9.23;6.20;;;;;;;4.18;65.60;148712.81;1816578;78;21675;-60
2022/03/13 09:03:39;;;;;;;11.60;6.05;;;;;;;4.22;65.24;148724.44;1822391;78;21336;-58
2022/03/13 09:06:08;;;;;;;12.30;6.35;;;;;;;4.28;65.13;148739.94;1822780;78;21284;-60
2022/03/13 09:08:35;;;;;;;10.25;6.15;;;;;;;4.44;65.22;148780.00;1823674;78;21025;-58
2022/03/13 09:11:02;;;;;;;12.05;6.17;;;;;;;4.73;64.19;148851.02;1823271;78;21027;-58
2022/03/13 09:13:31;;;;;;;12.30;6.30;;;;;;;4.73;64.19;148851.02;1823912;78;21028;-59
2022/03/13 09:16:00;;;;;;;10.03;5.70;;;;;;;4.86;63.21;148884.63;1823054;78;21035;-58
2022/03/13 09:18:27;;;;;;;10.90;5.58;;;;;;;4.93;62.47;148900.12;1823409;78;21067;-58
2022/03/13 09:20:54;;;;;;;11.55;5.90;;;;;;;4.99;61.94;148915.66;1822759;78;21087;-58
2022/03/13 09:23:21;;;;;;;11.43;5.90;;;;;;;4.92;60.40;148898.84;1823308;78;21134;-59
2022/03/13 09:25:50;;;;;;;10.10;5.50;;;;;;;4.83;60.13;148876.88;1823684;78;21406;-58
2022/03/13 09:28:17;;;;;;;9.88;5.53;;;;;;;4.76;60.44;148858.81;1822978;78;22058;-58
2022/03/13 09:30:44;;;;;;;8.50;5.17;;;;;;;4.75;60.45;148854.91;1822663;78;21035;-60
2022/03/13 09:33:12;;;;;;;10.35;5.37;;;;;;;4.75;60.11;148854.91;1823226;78;20992;-60
2022/03/13 09:35:40;;;;;;;9.53;5.20;;;;;;;4.76;59.95;148858.81;1823411;78;20901;-60
2022/03/13 09:38:08;;;;;;;9.35;4.90;;;;;;;4.82;59.91;148874.30;1822865;78;21569;-59
2022/03/13 09:40:38;;;;;;;8.90;5.37;;;;;;;5.02;58.72;148923.41;1823306;78;21374;-59
2022/03/13 09:43:05;;;;;;;10.08;5.45;;;;;;;5.02;58.72;148923.41;1823291;78;21165;-59
2022/03/13 09:45:33;;;;;;;9.25;5.05;;;;;;;5.12;57.55;148947.97;1823320;78;21008;-58
2022/03/13 09:48:02;;;;;;;9.80;5.70;;;;;;;5.14;56.82;148954.39;1823184;78;22114;-59
2022/03/13 09:50:30;;;;;;;11.95;6.60;;;;;;;5.24;57.15;148977.69;1823770;78;20961;-60
2022/03/13 09:52:57;;;;;;;9.68;6.42;;;;;;;5.27;58.00;148986.70;1823338;78;21100;-59
2022/03/13 09:55:24;;;;;;;11.08;6.80;;;;;;;5.27;59.50;148985.44;1823600;78;21063;-59
2022/03/13 09:57:52;;;;;;;16.30;7.35;;;;;;;5.23;60.28;148975.09;1823234;78;21048;-64
2022/03/13 10:00:25;;;;;;;11.35;6.92;;;;;;;5.19;61.37;148964.72;1794019;78;21079;-65
2022/03/13 10:02:53;;;;;;;13.45;6.75;;;;;;;5.19;61.99;148964.72;1821313;78;20948;-64
2022/03/13 10:05:21;;;;;;;11.70;6.90;;;;;;;5.16;62.52;148959.56;1817274;78;21141;-65
2022/03/13 10:08:02;;;;;;;11.35;6.35;;;;;;;5.02;62.44;148924.67;1817123;78;21083;-65
2022/03/13 10:10:47;;;;;;;11.05;6.25;;;;;;;5.02;62.44;148924.67;1817801;78;20929;-64
2022/03/13 10:13:18;;;;;;;12.85;6.70;;;;;;;4.95;62.04;148905.28;1817724;78;21692;-64
2022/03/13 10:15:48;;;;;;;11.43;6.22;;;;;;;4.87;62.68;148887.20;1811788;78;21480;-63
2022/03/13 10:18:17;;;;;;;13.45;6.45;;;;;;;4.80;62.94;148869.12;1817785;78;21201;-63
2022/03/13 10:20:46;;;;;;;11.95;6.30;;;;;;;4.74;63.11;148853.59;1817300;78;20973;-63
2022/03/13 10:23:17;;;;;;;13.43;6.50;;;;;;;4.68;63.25;148838.11;1817250;78;20975;-64
2022/03/13 10:25:45;;;;;;;11.80;6.62;;;;;;;4.64;63.38;148827.78;1817802;78;21024;-64
2022/03/13 10:28:24;;;;;;;10.78;6.20;;;;;;;4.68;63.56;148839.42;1817674;78;21064;-64
2022/03/13 10:31:05;;;;;;;11.80;6.58;;;;;;;4.74;63.59;148853.59;1817029;78;21896;-59
2022/03/13 10:33:49;;;;;;;10.82;6.65;;;;;;;4.85;63.85;148882.05;1817910;78;21427;-60
2022/03/13 10:36:24;;;;;;;15.08;6.83;;;;;;;5.01;63.07;148920.81;1817300;78;21052;-59
2022/03/13 10:38:51;;;;;;;;;;;;;;;5.18;63.03;148962.14;1819675;78;21076;-59
2022/03/13 10:41:20;;;;;;;14.25;6.47;;;;;;;5.31;62.94;148995.77;1817276;78;20153;-58
2022/03/13 10:43:57;;;;;;;13.22;6.35;;;;;;;5.42;62.69;149024.22;1817484;78;22072;-58
2022/03/13 10:46:32;;;;;;;15.40;7.50;;;;;;;5.52;62.28;149047.47;1817038;78;21089;-59
2022/03/13 10:49:00;;;;;;;12.15;6.65;;;;;;;5.55;62.28;149056.53;1817251;78;21079;-59
2022/03/13 10:51:45;;;;;;;14.00;6.92;;;;;;;5.61;61.93;149069.45;1817198;78;21111;-58
2022/03/13 10:54:29;;;;;;;12.73;7.00;;;;;;;5.63;62.02;149075.89;1816434;78;21021;-59
2022/03/13 10:57:13;;;;;;;10.72;6.80;;;;;;;5.62;61.36;149073.31;1816191;78;21111;-58
2022/03/13 10:59:41;;;;;;;11.05;5.90;;;;;;;5.56;61.44;149057.80;1816624;78;21351;-59
2022/03/13 11:02:17;;;;;;;15.72;6.83;;;;;;;5.53;61.04;149051.37;1816662;78;21004;-59
2022/03/13 11:04:49;;;;;;;16.70;7.57;;;;;;;5.48;61.11;149037.14;1816865;78;21029;-58
2022/03/13 11:07:17;;;;;;;12.05;6.78;;;;;;;5.40;60.90;149019.00;1817325;78;21540;-60
2022/03/13 11:09:44;;;;;;;11.55;6.33;;;;;;;5.33;60.66;149000.92;1816910;78;20999;-59
2022/03/13 11:12:19;;;;;;;10.63;6.10;;;;;;;5.32;60.73;148997.08;1817038;78;21012;-60
2022/03/13 11:14:43;;;;;;;11.83;6.97;;;;;;;5.30;60.63;148994.50;1816672;78;20984;-59
2022/03/13 11:17:11;;;;;;;13.10;6.33;;;;;;;5.31;60.82;148995.77;1817350;78;21072;-59
2022/03/13 11:19:39;;;;;;;13.83;6.55;;;;;;;5.34;60.25;149003.52;1817893;78;20838;-59
2022/03/13 11:22:08;;;;;;;11.75;6.55;;;;;;;5.27;59.46;148985.44;1817623;78;21069;-58
2022/03/13 11:24:36;;;;;;;11.12;6.47;;;;;;;5.19;59.32;148964.72;1817880;78;20997;-59
2022/03/13 11:27:10;;;;;;;9.83;5.80;;;;;;;5.08;59.37;148938.91;1817660;78;21679;-59
2022/03/13 11:29:46;;;;;;;11.10;6.20;;;;;;;5.03;59.50;148925.98;1786507;78;21066;-58